• Join FlightAware (Why Join?)
  • Login
  • US Flag 
05:01AM EST


 

Airport Tracker/Info


-or-


 

Live Flight TrackerFlight Track Log ✈ AAL2007 ✈ 02-Aug-2013 ✈ KORD - KAUS

Flight Track Log - Related Links

Times and Time Zones

All times are in EDT time to prevent confusion due to time zone crossing. See the AAL2007 flight status page for this flight to view local times or setup timezone preferences in your user account.

Time Position Orientation Groundspeed Altitude Reporting Facility
EDT Latitude Longitude Course Direction KTS MPH feet Rate Location/Type
06:46PM 41.9333 -87.9167 207° Southwest 186 214 2,300  Level Chicago TRACON
06:47PM 41.8833 -87.9667 217° Southwest 225 259 4,100 1,860 Climbing Chicago TRACON
06:48PM 41.8167 -88.0333 217° Southwest 268 308 6,100 960 Climbing Chicago TRACON
06:49PM 41.6005 -88.2874 197° South  Level Estimated
06:49PM 41.7500 -88.0500 191° South 284 327 6,200  Level Chicago TRACON
06:50PM 41.5050 -88.3819 194° South  Level Estimated
06:50PM 41.6667 -88.0333 172° South 294 338 8,700  Level Chicago TRACON
06:51PM 41.4095 -88.4761 207° Southwest  Level Estimated
06:51PM 41.5797 -88.0575 192° South 300 345 11,900  Level Chicago Center
06:52PM 41.4889 -88.1244 209° Southwest 321 369 13,800 1,800 Climbing Chicago Center
06:54PM 41.3992 -88.1808 205° Southwest 365 420 15,700 2,100 Climbing Chicago Center
06:55PM 41.2983 -88.2272 199° South 390 449 18,200 2,400 Climbing Chicago Center
06:56PM 41.1736 -88.2836 199° South 399 459 20,700 2,040 Climbing Chicago Center
06:57PM 41.0672 -88.3331 199° South 406 467 22,500 1,320 Climbing Chicago Center
06:58PM 40.9592 -88.3806 198° South 411 473 23,500 1,140 Climbing Chicago Center
06:59PM 40.8522 -88.4292 199° South 410 472 24,900 1,260 Climbing Chicago Center
07:00PM 40.7386 -88.4786 198° South 426 490 26,200 1,260 Climbing Chicago Center
07:01PM 40.5994 -88.5408 199° South 441 507 27,600 1,200 Climbing Chicago Center
07:02PM 40.4800 -88.5933 198° South 453 521 28,800 1,140 Climbing Chicago Center
07:03PM 40.3722 -88.6406 198° South 454 522 30,000 540 Climbing Chicago Center
07:04PM 40.2636 -88.7214 210° Southwest 450 518 30,000  Level Chicago Center
07:05PM 40.1492 -88.8397 218° Southwest 439 505 30,000  Level Chicago Center
07:06PM 40.0533 -88.9372 218° Southwest 437 503 30,000  Level Chicago Center
07:07PM 39.9586 -89.0358 219° Southwest 434 499 30,000  Level Chicago Center
07:08PM 39.8711 -89.0981 209° Southwest 442 509 30,000  Level Kansas City Center
07:09PM 39.7581 -89.1669 205° Southwest 447 514 30,000  Level Kansas City Center
07:10PM 39.6450 -89.2369 205° Southwest 447 514 30,000  Level Kansas City Center
07:11PM 39.5200 -89.3183 207° Southwest 447 514 30,000  Level Kansas City Center
07:12PM 39.4089 -89.3892 206° Southwest 446 513 30,000  Level Kansas City Center
07:13PM 39.2969 -89.4600 206° Southwest 448 516 30,000  Level Kansas City Center
07:14PM 39.1864 -89.5297 206° Southwest 444 511 30,000  Level Kansas City Center
07:15PM 39.0633 -89.6100 207° Southwest 446 513 30,000  Level Kansas City Center
07:16PM 38.9431 -89.6856 206° Southwest 447 514 30,000  Level Kansas City Center
07:17PM 38.8242 -89.7578 205° Southwest 460 529 30,000  Level Kansas City Center
07:18PM 38.7033 -89.8208 202° Southwest 464 534 30,000  Level Kansas City Center
07:19PM 38.5758 -89.8631 195° South 468 539 30,000  Level Kansas City Center
07:20PM 38.4469 -89.9022 193° South 469 540 30,000  Level Kansas City Center
07:21PM 38.3194 -89.9439 194° South 470 541 30,000  Level Kansas City Center
07:22PM 38.1914 -89.9831 194° South 471 542 30,000  Level Kansas City Center
07:23PM 38.0758 -90.0500 205° Southwest 459 528 30,000  Level Kansas City Center
07:24PM 37.9856 -90.1581 223° Southwest 445 512 30,000  Level Kansas City Center
07:25PM 37.8808 -90.2931 226° Southwest 444 511 30,000  Level Kansas City Center
07:26PM 37.7947 -90.4058 226° Southwest 443 510 30,000  Level Kansas City Center
07:27PM 37.7094 -90.5142 225° Southwest 441 507 30,000  Level Kansas City Center
07:28PM 37.6275 -90.6258 227° Southwest 436 502 30,000  Level Kansas City Center
07:29PM 37.5444 -90.7378 227° Southwest 436 502 30,000  Level Kansas City Center
07:31PM 37.4219 -90.8044 203° Southwest 457 526 30,000  Level Kansas City Center
07:32PM 37.3019 -90.8642 202° Southwest 459 528 30,000  Level Kansas City Center
07:33PM 37.1842 -90.9264 203° Southwest 459 528 30,000  Level Kansas City Center
07:34PM 37.0403 -91.0011 203° Southwest 461 531 30,000  Level Kansas City Center
07:35PM 36.9192 -91.0625 202° Southwest 466 536 30,000  Level Kansas City Center
07:36PM 36.7975 -91.1253 202° Southwest 466 536 30,000  Level Kansas City Center
07:37PM 36.6758 -91.1878 202° Southwest 469 540 30,000  Level Kansas City Center
07:38PM 36.5586 -91.2481 202° Southwest 469 540 30,000  Level Kansas City Center
07:39PM 36.4331 -91.3089 201° Southwest 479 551 30,000  Level Kansas City Center
07:40PM 36.3081 -91.4592 224° Southwest 446 513 30,000  Level Memphis Center
07:41PM 36.2236 -91.5739 228° Southwest 446 513 30,000  Level Memphis Center
07:42PM 36.1369 -91.6831 226° Southwest 451 519 30,000  Level Memphis Center
07:43PM 36.0442 -91.7919 224° Southwest 451 519 30,000  Level Memphis Center
07:44PM 35.9636 -91.9033 228° Southwest 451 519 30,000  Level Memphis Center
07:45PM 35.8681 -92.0219 225° Southwest 445 512 30,000  Level Memphis Center
07:46PM 35.7792 -92.1328 225° Southwest 451 519 30,000  Level Memphis Center
07:47PM 35.6878 -92.2433 225° Southwest 451 519 30,000  Level Memphis Center
07:48PM 35.6006 -92.3564 227° Southwest 451 519 30,000  Level Memphis Center
07:49PM 35.5111 -92.4639 224° Southwest 451 519 30,000  Level Memphis Center
07:50PM 35.4303 -92.5586 224° Southwest 451 519 30,000  Level Memphis Center
07:51PM 35.3406 -92.6708 226° Southwest 451 519 30,000  Level Memphis Center
07:52PM 35.2528 -92.7853 227° Southwest 459 528 30,000  Level Memphis Center
07:53PM 35.1631 -92.9022 227° Southwest 459 528 30,000  Level Memphis Center
07:54PM 35.0669 -93.0083 222° Southwest 464 534 30,000  Level Memphis Center
07:55PM 34.9747 -93.1194 225° Southwest 475 547 30,000  Level Memphis Center
07:56PM 34.8825 -93.2278 224° Southwest 470 541 30,000  Level Memphis Center
07:57PM 34.7922 -93.3436 227° Southwest 470 541 30,000  Level Memphis Center
07:58PM 34.6997 -93.4542 225° Southwest 475 547 30,000  Level Memphis Center
07:59PM 34.6094 -93.5642 225° Southwest 475 547 30,000  Level Memphis Center
08:01PM 34.4439 -93.7697 226° Southwest 454 522 30,000  Level Fort Worth Center
08:02PM 34.3511 -93.8769 224° Southwest 459 528 30,000  Level Fort Worth Center
08:03PM 34.2581 -93.9886 225° Southwest 459 528 30,000  Level Fort Worth Center
08:04PM 34.1672 -94.0978 225° Southwest 464 534 30,000  Level Fort Worth Center
08:05PM 34.0761 -94.2064 225° Southwest 469 540 30,000  Level Fort Worth Center
08:06PM 33.9889 -94.3050 223° Southwest 474 545 30,000  Level Fort Worth Center
08:07PM 33.8975 -94.4133 225° Southwest 474 545 30,000  Level Fort Worth Center
08:08PM 33.8042 -94.5239 225° Southwest 474 545 30,000  Level Fort Worth Center
08:09PM 33.7106 -94.6319 224° Southwest 474 545 30,000  Level Fort Worth Center
08:10PM 33.6150 -94.7422 224° Southwest 474 545 30,000  Level Fort Worth Center
08:11PM 33.5233 -94.8519 225° Southwest 474 545 30,000  Level Fort Worth Center
08:12PM 33.4272 -94.9569 222° Southwest 479 551 30,000  Level Fort Worth Center
08:13PM 33.3333 -95.0664 224° Southwest 479 551 30,000  Level Fort Worth Center
08:14PM 33.2372 -95.1756 224° Southwest 479 551 30,000  Level Fort Worth Center
08:15PM 33.1431 -95.2822 223° Southwest 474 545 30,000  Level Fort Worth Center
08:16PM 33.0489 -95.3911 224° Southwest 474 545 30,000  Level Fort Worth Center
08:17PM 32.9544 -95.4947 223° Southwest 474 545 30,000  Level Fort Worth Center
08:18PM 32.8622 -95.6031 225° Southwest 474 545 30,000  Level Fort Worth Center
08:19PM 32.7594 -95.7189 223° Southwest 474 545 30,000  Level Fort Worth Center
08:20PM 32.6647 -95.8267 224° Southwest 474 545 30,000  Level Fort Worth Center
08:21PM 32.5700 -95.9344 224° Southwest 474 545 30,000  Level Fort Worth Center
08:22PM 32.4731 -96.0392 222° Southwest 474 545 30,000  Level Fort Worth Center
08:23PM 32.3803 -96.1464 224° Southwest 474 545 30,000  Level Fort Worth Center
08:24PM 32.2831 -96.2511 222° Southwest 474 545 30,000  Level Fort Worth Center
08:25PM 32.1861 -96.3603 224° Southwest 474 545 30,000  Level Fort Worth Center
08:26PM 32.0908 -96.4669 223° Southwest 474 545 30,000  Level Fort Worth Center
08:27PM 31.9975 -96.5706 223° Southwest 474 545 30,000  Level Fort Worth Center
08:28PM 31.9042 -96.6767 224° Southwest 469 540 30,000 -180 Level Fort Worth Center
08:29PM 31.8025 -96.7753 220° Southwest 474 545 29,700 -900 Descending Fort Worth Center
08:30PM 31.7006 -96.8469 211° Southwest 474 545 28,300 -1,800 Descending Fort Worth Center
08:31PM 31.5542 -96.9531 212° Southwest 474 545 25,600 -2,040 Descending Houston Center
08:32PM 31.4439 -97.0339 212° Southwest 466 536 23,600 -1,860 Descending Houston Center
08:33PM 31.3381 -97.1128 212° Southwest 454 522 21,800 -1,800 Descending Houston Center
08:34PM 31.2350 -97.1886 212° Southwest 440 506 20,000 -2,040 Descending Houston Center
08:35PM 31.1072 -97.2472 201° Southwest 422 486 17,600 -2,220 Descending Houston Center
08:36PM 30.9983 -97.2908 199° South 416 479 15,500 -1,920 Descending Houston Center
08:37PM 30.8939 -97.3311 198° South 413 475 13,700 -1,260 Descending Houston Center
08:38PM 30.7981 -97.3678 198° South 371 427 13,000 -1,320 Descending Houston Center
08:39PM 30.7183 -97.4183 209° Southwest 328 377 11,000 -1,680 Descending Houston Center
08:40PM 30.6311 -97.4781 211° Southwest 313 360 9,600 -1,440 Descending Houston Center
08:41PM 30.5608 -97.5242 209° Southwest 294 338 8,100 -1,680 Descending Houston Center
08:42PM 30.4886 -97.5603 203° Southwest 284 327 6,200 -1,920 Descending Houston Center
08:43PM 30.4233 -97.5969 206° Southwest 264 304 4,200 -1,500 Descending Houston Center
08:44PM 30.3656 -97.6272 204° Southwest 230 265 3,200 -840 Descending Houston Center
08:46PM 30.3108 -97.6567 205° Southwest 218 251 2,500 -780 Descending Houston Center
08:47PM 30.2647 -97.6586 182° South 179 206 1,700 -780 Descending Houston Center
08:48PM 30.2247 -97.6583 180° South 155 178 1,000 -420 Descending Houston Center
08:49PM 30.1867 -97.6556 176° South 152 175 900 -120 Descending Houston Center